Cowlic, Arizona
Current Conditions -  °F | °C
As of 9:45 AM on Friday 21 Nov 2014 (Local Time) from KRYN Reporting Station
Clear Clear  
Wind Chill: 57°   Ceiling: Unl
Heat Index: 57°   Visibility: 10mi
Dew Point: 27°   Wind: 0mph
Humidity: 31%   Direction: NA
Pressure: 29.97"   Gusts: NA
Location:  32.0925°N, 112.129°W
Report Text: KRYN 211645Z 00000KT 10SM CLR 14/M03 A2997
Loading
Personal Weather Stations






























Interactive Weather Map New forecast layout! Learn more

10-Day Weather Forecast

Advertisements
Track Severe Weather on mobile